sensor_id;sensor_type;location;lat;lon;timestamp;P1;durP1;ratioP1;P2;durP2;ratioP2
16975;SDS011;8604;48.148;-1.786;2022-09-01T00:01:53;11.40;;;7.10;;
16975;SDS011;8604;48.148;-1.786;2022-09-01T00:12:13;14.43;;;7.50;;
16975;SDS011;8604;48.148;-1.786;2022-09-01T00:14:42;16.33;;;7.77;;
16975;SDS011;8604;48.148;-1.786;2022-09-01T00:17:11;17.60;;;7.47;;
16975;SDS011;8604;48.148;-1.786;2022-09-01T00:19:39;17.67;;;7.70;;
16975;SDS011;8604;48.148;-1.786;2022-09-01T00:22:07;13.23;;;7.53;;
16975;SDS011;8604;48.148;-1.786;2022-09-01T00:24:36;13.93;;;7.80;;
16975;SDS011;8604;48.148;-1.786;2022-09-01T00:27:04;13.13;;;8.00;;
16975;SDS011;8604;48.148;-1.786;2022-09-01T00:29:34;21.63;;;8.23;;
16975;SDS011;8604;48.148;-1.786;2022-09-01T00:32:02;16.43;;;7.93;;
16975;SDS011;8604;48.148;-1.786;2022-09-01T00:34:31;22.97;;;7.40;;
16975;SDS011;8604;48.148;-1.786;2022-09-01T00:36:59;14.03;;;7.13;;
16975;SDS011;8604;48.148;-1.786;2022-09-01T00:39:27;14.00;;;8.40;;
16975;SDS011;8604;48.148;-1.786;2022-09-01T00:41:56;17.37;;;8.63;;
16975;SDS011;8604;48.148;-1.786;2022-09-01T00:44:25;11.10;;;7.43;;
16975;SDS011;8604;48.148;-1.786;2022-09-01T00:46:58;12.00;;;7.47;;
16975;SDS011;8604;48.148;-1.786;2022-09-01T00:49:27;14.23;;;7.97;;
16975;SDS011;8604;48.148;-1.786;2022-09-01T00:52:01;11.73;;;7.43;;
16975;SDS011;8604;48.148;-1.786;2022-09-01T00:54:35;12.80;;;8.33;;
16975;SDS011;8604;48.148;-1.786;2022-09-01T00:57:08;18.67;;;9.00;;
16975;SDS011;8604;48.148;-1.786;2022-09-01T00:59:40;10.43;;;6.80;;
16975;SDS011;8604;48.148;-1.786;2022-09-01T01:02:13;10.73;;;6.83;;
16975;SDS011;8604;48.148;-1.786;2022-09-01T01:04:42;11.73;;;7.17;;
16975;SDS011;8604;48.148;-1.786;2022-09-01T01:10:55;12.13;;;7.73;;
16975;SDS011;8604;48.148;-1.786;2022-09-01T01:25:01;13.27;;;8.30;;
16975;SDS011;8604;48.148;-1.786;2022-09-01T01:27:30;14.33;;;8.30;;
16975;SDS011;8604;48.148;-1.786;2022-09-01T01:30:09;24.53;;;10.37;;
16975;SDS011;8604;48.148;-1.786;2022-09-01T01:33:54;20.20;;;9.00;;
16975;SDS011;8604;48.148;-1.786;2022-09-01T01:40:09;13.53;;;9.43;;
16975;SDS011;8604;48.148;-1.786;2022-09-01T01:43:55;15.53;;;9.67;;
16975;SDS011;8604;48.148;-1.786;2022-09-01T01:46:26;13.83;;;8.73;;
16975;SDS011;8604;48.148;-1.786;2022-09-01T01:56:22;18.30;;;9.17;;
16975;SDS011;8604;48.148;-1.786;2022-09-01T01:58:51;16.67;;;8.57;;
16975;SDS011;8604;48.148;-1.786;2022-09-01T02:01:21;13.90;;;8.47;;
16975;SDS011;8604;48.148;-1.786;2022-09-01T02:03:51;14.37;;;8.73;;
16975;SDS011;8604;48.148;-1.786;2022-09-01T02:10:03;11.83;;;8.53;;
16975;SDS011;8604;48.148;-1.786;2022-09-01T02:15:59;17.60;;;9.80;;
16975;SDS011;8604;48.148;-1.786;2022-09-01T02:18:30;15.07;;;8.20;;
16975;SDS011;8604;48.148;-1.786;2022-09-01T02:21:01;10.73;;;7.93;;
16975;SDS011;8604;48.148;-1.786;2022-09-01T02:24:32;16.93;;;9.23;;
16975;SDS011;8604;48.148;-1.786;2022-09-01T02:27:18;17.00;;;9.73;;
16975;SDS011;8604;48.148;-1.786;2022-09-01T02:57:49;17.30;;;8.80;;
16975;SDS011;8604;48.148;-1.786;2022-09-01T03:08:13;13.27;;;8.23;;
16975;SDS011;8604;48.148;-1.786;2022-09-01T03:10:43;16.27;;;9.40;;
16975;SDS011;8604;48.148;-1.786;2022-09-01T03:13:14;14.43;;;8.43;;
16975;SDS011;8604;48.148;-1.786;2022-09-01T03:23:15;16.70;;;8.93;;
16975;SDS011;8604;48.148;-1.786;2022-09-01T03:44:46;13.57;;;9.43;;
16975;SDS011;8604;48.148;-1.786;2022-09-01T03:51:46;13.73;;;8.13;;
16975;SDS011;8604;48.148;-1.786;2022-09-01T04:07:13;15.57;;;9.33;;
16975;SDS011;8604;48.148;-1.786;2022-09-01T04:10:35;15.07;;;8.67;;
16975;SDS011;8604;48.148;-1.786;2022-09-01T04:13:19;11.37;;;9.00;;
16975;SDS011;8604;48.148;-1.786;2022-09-01T04:17:02;10.13;;;7.40;;
16975;SDS011;8604;48.148;-1.786;2022-09-01T04:20:39;14.53;;;9.57;;
16975;SDS011;8604;48.148;-1.786;2022-09-01T04:28:14;13.00;;;8.40;;
16975;SDS011;8604;48.148;-1.786;2022-09-01T04:34:57;11.80;;;7.87;;
16975;SDS011;8604;48.148;-1.786;2022-09-01T04:51:07;19.37;;;9.20;;
16975;SDS011;8604;48.148;-1.786;2022-09-01T04:57:12;17.67;;;9.43;;
16975;SDS011;8604;48.148;-1.786;2022-09-01T04:59:42;14.30;;;9.57;;
16975;SDS011;8604;48.148;-1.786;2022-09-01T05:02:11;11.23;;;8.43;;
16975;SDS011;8604;48.148;-1.786;2022-09-01T05:04:39;15.83;;;9.70;;
16975;SDS011;8604;48.148;-1.786;2022-09-01T05:11:37;17.23;;;9.13;;
16975;SDS011;8604;48.148;-1.786;2022-09-01T05:15:21;13.27;;;8.37;;
16975;SDS011;8604;48.148;-1.786;2022-09-01T05:34:52;12.90;;;8.40;;
16975;SDS011;8604;48.148;-1.786;2022-09-01T05:37:20;14.70;;;8.47;;
16975;SDS011;8604;48.148;-1.786;2022-09-01T05:39:49;15.40;;;8.60;;
16975;SDS011;8604;48.148;-1.786;2022-09-01T05:42:17;15.97;;;7.57;;
16975;SDS011;8604;48.148;-1.786;2022-09-01T05:44:47;14.93;;;8.60;;
16975;SDS011;8604;48.148;-1.786;2022-09-01T05:47:23;10.63;;;7.17;;
16975;SDS011;8604;48.148;-1.786;2022-09-01T05:50:16;14.60;;;7.87;;
16975;SDS011;8604;48.148;-1.786;2022-09-01T05:52:50;11.30;;;6.73;;
16975;SDS011;8604;48.148;-1.786;2022-09-01T05:55:32;12.67;;;7.67;;
16975;SDS011;8604;48.148;-1.786;2022-09-01T05:58:11;10.43;;;6.27;;
16975;SDS011;8604;48.148;-1.786;2022-09-01T06:01:03;15.20;;;7.30;;
16975;SDS011;8604;48.148;-1.786;2022-09-01T06:03:54;13.43;;;6.87;;
16975;SDS011;8604;48.148;-1.786;2022-09-01T06:06:38;14.97;;;7.43;;
16975;SDS011;8604;48.148;-1.786;2022-09-01T06:09:44;16.07;;;7.33;;
16975;SDS011;8604;48.148;-1.786;2022-09-01T06:12:23;19.97;;;9.10;;
16975;SDS011;8604;48.148;-1.786;2022-09-01T06:14:58;14.40;;;8.60;;
16975;SDS011;8604;48.148;-1.786;2022-09-01T06:17:36;13.00;;;8.43;;
16975;SDS011;8604;48.148;-1.786;2022-09-01T06:20:12;17.20;;;9.10;;
16975;SDS011;8604;48.148;-1.786;2022-09-01T06:22:48;11.93;;;8.17;;
16975;SDS011;8604;48.148;-1.786;2022-09-01T06:25:23;14.23;;;8.57;;
16975;SDS011;8604;48.148;-1.786;2022-09-01T06:28:03;14.77;;;7.43;;
16975;SDS011;8604;48.148;-1.786;2022-09-01T06:30:44;13.33;;;7.57;;
16975;SDS011;8604;48.148;-1.786;2022-09-01T06:33:40;15.20;;;8.77;;
16975;SDS011;8604;48.148;-1.786;2022-09-01T06:36:50;11.47;;;7.20;;
16975;SDS011;8604;48.148;-1.786;2022-09-01T06:39:31;13.37;;;8.23;;
16975;SDS011;8604;48.148;-1.786;2022-09-01T06:42:11;13.37;;;7.07;;
16975;SDS011;8604;48.148;-1.786;2022-09-01T06:45:08;11.47;;;7.03;;
16975;SDS011;8604;48.148;-1.786;2022-09-01T06:47:44;9.23;;;6.50;;
16975;SDS011;8604;48.148;-1.786;2022-09-01T06:50:14;13.40;;;6.50;;
16975;SDS011;8604;48.148;-1.786;2022-09-01T06:53:05;15.10;;;7.07;;
16975;SDS011;8604;48.148;-1.786;2022-09-01T06:56:00;12.93;;;7.90;;
16975;SDS011;8604;48.148;-1.786;2022-09-01T06:58:29;13.37;;;8.43;;
16975;SDS011;8604;48.148;-1.786;2022-09-01T07:01:03;14.00;;;7.07;;
16975;SDS011;8604;48.148;-1.786;2022-09-01T07:03:33;15.87;;;7.00;;
16975;SDS011;8604;48.148;-1.786;2022-09-01T07:06:13;12.47;;;6.70;;
16975;SDS011;8604;48.148;-1.786;2022-09-01T07:09:14;12.80;;;8.10;;
16975;SDS011;8604;48.148;-1.786;2022-09-01T07:12:24;12.67;;;7.03;;
16975;SDS011;8604;48.148;-1.786;2022-09-01T07:14:56;13.23;;;6.50;;
16975;SDS011;8604;48.148;-1.786;2022-09-01T07:17:46;12.40;;;5.90;;
16975;SDS011;8604;48.148;-1.786;2022-09-01T07:20:18;11.30;;;5.97;;
16975;SDS011;8604;48.148;-1.786;2022-09-01T07:22:51;11.97;;;6.10;;
16975;SDS011;8604;48.148;-1.786;2022-09-01T07:25:38;8.37;;;5.30;;
16975;SDS011;8604;48.148;-1.786;2022-09-01T07:28:32;14.40;;;6.10;;
16975;SDS011;8604;48.148;-1.786;2022-09-01T07:34:22;9.87;;;5.70;;
16975;SDS011;8604;48.148;-1.786;2022-09-01T07:37:12;12.27;;;5.00;;
16975;SDS011;8604;48.148;-1.786;2022-09-01T07:40:02;12.77;;;5.93;;
16975;SDS011;8604;48.148;-1.786;2022-09-01T07:43:05;13.73;;;5.80;;
16975;SDS011;8604;48.148;-1.786;2022-09-01T07:45:57;11.10;;;5.40;;
16975;SDS011;8604;48.148;-1.786;2022-09-01T07:48:51;11.93;;;6.20;;
16975;SDS011;8604;48.148;-1.786;2022-09-01T07:51:43;12.83;;;5.60;;
16975;SDS011;8604;48.148;-1.786;2022-09-01T07:58:49;11.33;;;4.63;;
16975;SDS011;8604;48.148;-1.786;2022-09-01T08:01:24;12.13;;;5.93;;
16975;SDS011;8604;48.148;-1.786;2022-09-01T08:04:10;11.37;;;5.73;;
16975;SDS011;8604;48.148;-1.786;2022-09-01T08:06:40;11.30;;;5.30;;
16975;SDS011;8604;48.148;-1.786;2022-09-01T08:09:09;12.33;;;5.00;;
16975;SDS011;8604;48.148;-1.786;2022-09-01T08:12:05;12.43;;;5.77;;
16975;SDS011;8604;48.148;-1.786;2022-09-01T08:26:17;11.50;;;5.83;;
16975;SDS011;8604;48.148;-1.786;2022-09-01T08:31:43;9.90;;;5.93;;
16975;SDS011;8604;48.148;-1.786;2022-09-01T08:34:13;13.93;;;6.40;;
16975;SDS011;8604;48.148;-1.786;2022-09-01T08:36:42;12.17;;;6.00;;
16975;SDS011;8604;48.148;-1.786;2022-09-01T08:39:14;13.80;;;6.50;;
16975;SDS011;8604;48.148;-1.786;2022-09-01T08:41:46;11.33;;;5.87;;
16975;SDS011;8604;48.148;-1.786;2022-09-01T08:44:26;14.60;;;7.20;;
16975;SDS011;8604;48.148;-1.786;2022-09-01T08:47:01;15.67;;;7.93;;
16975;SDS011;8604;48.148;-1.786;2022-09-01T08:50:48;11.67;;;5.90;;
16975;SDS011;8604;48.148;-1.786;2022-09-01T08:56:59;14.23;;;6.13;;
16975;SDS011;8604;48.148;-1.786;2022-09-01T09:00:46;9.53;;;5.80;;
16975;SDS011;8604;48.148;-1.786;2022-09-01T09:11:51;9.50;;;5.60;;
16975;SDS011;8604;48.148;-1.786;2022-09-01T09:14:47;16.17;;;7.50;;
16975;SDS011;8604;48.148;-1.786;2022-09-01T10:02:20;12.07;;;6.63;;
16975;SDS011;8604;48.148;-1.786;2022-09-01T10:04:54;12.00;;;6.87;;
16975;SDS011;8604;48.148;-1.786;2022-09-01T10:07:24;11.43;;;7.20;;
16975;SDS011;8604;48.148;-1.786;2022-09-01T10:09:58;13.20;;;6.17;;
16975;SDS011;8604;48.148;-1.786;2022-09-01T10:12:27;13.47;;;6.77;;
16975;SDS011;8604;48.148;-1.786;2022-09-01T10:14:59;11.27;;;6.47;;
16975;SDS011;8604;48.148;-1.786;2022-09-01T10:17:40;9.77;;;6.63;;
16975;SDS011;8604;48.148;-1.786;2022-09-01T10:20:14;11.73;;;6.60;;
16975;SDS011;8604;48.148;-1.786;2022-09-01T10:22:47;9.70;;;6.17;;
16975;SDS011;8604;48.148;-1.786;2022-09-01T10:25:19;11.57;;;5.67;;
16975;SDS011;8604;48.148;-1.786;2022-09-01T10:27:49;11.70;;;5.83;;
16975;SDS011;8604;48.148;-1.786;2022-09-01T10:30:24;10.13;;;6.17;;
16975;SDS011;8604;48.148;-1.786;2022-09-01T10:32:56;10.53;;;6.17;;
16975;SDS011;8604;48.148;-1.786;2022-09-01T10:35:41;11.67;;;5.37;;
16975;SDS011;8604;48.148;-1.786;2022-09-01T10:38:14;10.03;;;6.13;;
16975;SDS011;8604;48.148;-1.786;2022-09-01T10:40:45;13.50;;;7.27;;
16975;SDS011;8604;48.148;-1.786;2022-09-01T10:49:19;11.10;;;6.67;;
16975;SDS011;8604;48.148;-1.786;2022-09-01T10:52:19;11.27;;;6.53;;
16975;SDS011;8604;48.148;-1.786;2022-09-01T10:55:42;12.10;;;6.70;;
16975;SDS011;8604;48.148;-1.786;2022-09-01T10:58:27;10.53;;;6.20;;
16975;SDS011;8604;48.148;-1.786;2022-09-01T11:05:15;10.90;;;7.13;;
16975;SDS011;8604;48.148;-1.786;2022-09-01T11:07:45;10.50;;;6.47;;
16975;SDS011;8604;48.148;-1.786;2022-09-01T11:10:39;12.03;;;6.33;;
16975;SDS011;8604;48.148;-1.786;2022-09-01T11:13:23;11.57;;;6.70;;
16975;SDS011;8604;48.148;-1.786;2022-09-01T11:19:31;9.10;;;6.37;;
16975;SDS011;8604;48.148;-1.786;2022-09-01T11:25:09;9.47;;;6.20;;
16975;SDS011;8604;48.148;-1.786;2022-09-01T11:28:06;12.07;;;6.37;;
16975;SDS011;8604;48.148;-1.786;2022-09-01T11:30:51;9.30;;;5.70;;
16975;SDS011;8604;48.148;-1.786;2022-09-01T11:33:30;9.67;;;6.70;;
16975;SDS011;8604;48.148;-1.786;2022-09-01T11:36:15;8.83;;;5.63;;
16975;SDS011;8604;48.148;-1.786;2022-09-01T11:38:53;13.93;;;5.87;;
16975;SDS011;8604;48.148;-1.786;2022-09-01T11:41:28;10.67;;;6.30;;
16975;SDS011;8604;48.148;-1.786;2022-09-01T11:44:02;10.67;;;7.10;;
16975;SDS011;8604;48.148;-1.786;2022-09-01T11:46:40;9.47;;;6.33;;
16975;SDS011;8604;48.148;-1.786;2022-09-01T11:49:21;15.00;;;7.83;;
16975;SDS011;8604;48.148;-1.786;2022-09-01T11:51:55;14.00;;;7.70;;
16975;SDS011;8604;48.148;-1.786;2022-09-01T11:54:36;9.40;;;6.57;;
16975;SDS011;8604;48.148;-1.786;2022-09-01T11:57:18;11.87;;;8.30;;
16975;SDS011;8604;48.148;-1.786;2022-09-01T11:59:52;10.23;;;6.40;;
16975;SDS011;8604;48.148;-1.786;2022-09-01T12:02:22;9.93;;;7.50;;
16975;SDS011;8604;48.148;-1.786;2022-09-01T12:04:53;9.93;;;5.77;;
16975;SDS011;8604;48.148;-1.786;2022-09-01T12:07:24;11.67;;;7.00;;
16975;SDS011;8604;48.148;-1.786;2022-09-01T12:09:58;10.83;;;8.53;;
16975;SDS011;8604;48.148;-1.786;2022-09-01T12:12:29;7.80;;;6.03;;
16975;SDS011;8604;48.148;-1.786;2022-09-01T12:15:01;10.03;;;7.00;;
16975;SDS011;8604;48.148;-1.786;2022-09-01T12:17:33;13.37;;;8.30;;
16975;SDS011;8604;48.148;-1.786;2022-09-01T12:20:19;12.43;;;7.00;;
16975;SDS011;8604;48.148;-1.786;2022-09-01T12:22:56;10.73;;;7.03;;
16975;SDS011;8604;48.148;-1.786;2022-09-01T12:25:30;9.93;;;6.50;;
16975;SDS011;8604;48.148;-1.786;2022-09-01T12:28:01;10.03;;;6.70;;
16975;SDS011;8604;48.148;-1.786;2022-09-01T12:30:32;10.90;;;6.57;;
16975;SDS011;8604;48.148;-1.786;2022-09-01T12:33:06;12.63;;;7.03;;
16975;SDS011;8604;48.148;-1.786;2022-09-01T12:38:47;12.73;;;7.00;;
16975;SDS011;8604;48.148;-1.786;2022-09-01T12:41:24;11.77;;;6.50;;
16975;SDS011;8604;48.148;-1.786;2022-09-01T12:46:57;8.38;;;5.93;;
16975;SDS011;8604;48.148;-1.786;2022-09-01T12:49:33;8.43;;;5.78;;
16975;SDS011;8604;48.148;-1.786;2022-09-01T12:52:20;11.15;;;6.13;;
16975;SDS011;8604;48.148;-1.786;2022-09-01T12:54:53;11.05;;;5.35;;
16975;SDS011;8604;48.148;-1.786;2022-09-01T12:57:37;7.13;;;5.20;;
16975;SDS011;8604;48.148;-1.786;2022-09-01T13:00:15;7.88;;;4.75;;
16975;SDS011;8604;48.148;-1.786;2022-09-01T13:02:47;7.05;;;4.40;;
16975;SDS011;8604;48.148;-1.786;2022-09-01T13:05:23;9.10;;;5.00;;
16975;SDS011;8604;48.148;-1.786;2022-09-01T13:08:01;8.18;;;4.88;;
16975;SDS011;8604;48.148;-1.786;2022-09-01T13:10:34;9.52;;;5.57;;
16975;SDS011;8604;48.148;-1.786;2022-09-01T13:13:07;9.77;;;5.30;;
16975;SDS011;8604;48.148;-1.786;2022-09-01T13:15:38;9.38;;;5.75;;
16975;SDS011;8604;48.148;-1.786;2022-09-01T13:18:08;7.97;;;4.85;;
16975;SDS011;8604;48.148;-1.786;2022-09-01T13:20:37;8.30;;;5.93;;
16975;SDS011;8604;48.148;-1.786;2022-09-01T13:23:08;8.35;;;6.00;;
16975;SDS011;8604;48.148;-1.786;2022-09-01T13:25:38;9.23;;;5.82;;
16975;SDS011;8604;48.148;-1.786;2022-09-01T13:28:11;8.15;;;5.20;;
16975;SDS011;8604;48.148;-1.786;2022-09-01T13:30:41;9.13;;;6.35;;
16975;SDS011;8604;48.148;-1.786;2022-09-01T13:33:10;8.02;;;4.88;;
16975;SDS011;8604;48.148;-1.786;2022-09-01T13:35:49;7.32;;;5.03;;
16975;SDS011;8604;48.148;-1.786;2022-09-01T13:38:20;8.18;;;5.20;;
16975;SDS011;8604;48.148;-1.786;2022-09-01T13:40:49;8.73;;;5.25;;
16975;SDS011;8604;48.148;-1.786;2022-09-01T13:43:20;8.90;;;4.57;;
16975;SDS011;8604;48.148;-1.786;2022-09-01T13:45:53;8.95;;;4.32;;
16975;SDS011;8604;48.148;-1.786;2022-09-01T13:48:22;6.83;;;3.53;;
16975;SDS011;8604;48.148;-1.786;2022-09-01T13:51:10;7.20;;;4.30;;
16975;SDS011;8604;48.148;-1.786;2022-09-01T13:53:43;6.63;;;4.20;;
16975;SDS011;8604;48.148;-1.786;2022-09-01T13:56:12;7.23;;;4.03;;
16975;SDS011;8604;48.148;-1.786;2022-09-01T13:58:42;8.87;;;3.83;;
16975;SDS011;8604;48.148;-1.786;2022-09-01T14:01:13;8.38;;;3.92;;
16975;SDS011;8604;48.148;-1.786;2022-09-01T14:03:42;7.67;;;4.63;;
16975;SDS011;8604;48.148;-1.786;2022-09-01T14:06:17;7.03;;;3.87;;
16975;SDS011;8604;48.148;-1.786;2022-09-01T14:08:46;7.10;;;3.90;;
16975;SDS011;8604;48.148;-1.786;2022-09-01T14:11:16;7.53;;;4.37;;
16975;SDS011;8604;48.148;-1.786;2022-09-01T14:13:47;8.07;;;4.33;;
16975;SDS011;8604;48.148;-1.786;2022-09-01T14:16:16;10.20;;;4.50;;
16975;SDS011;8604;48.148;-1.786;2022-09-01T14:18:45;8.77;;;3.73;;
16975;SDS011;8604;48.148;-1.786;2022-09-01T14:21:14;8.73;;;4.33;;
16975;SDS011;8604;48.148;-1.786;2022-09-01T14:23:43;7.43;;;4.30;;
16975;SDS011;8604;48.148;-1.786;2022-09-01T14:26:13;6.23;;;3.47;;
16975;SDS011;8604;48.148;-1.786;2022-09-01T14:28:43;8.93;;;4.27;;
16975;SDS011;8604;48.148;-1.786;2022-09-01T14:31:15;8.23;;;4.40;;
16975;SDS011;8604;48.148;-1.786;2022-09-01T14:33:45;7.03;;;4.13;;
16975;SDS011;8604;48.148;-1.786;2022-09-01T14:36:16;6.10;;;3.57;;
16975;SDS011;8604;48.148;-1.786;2022-09-01T14:38:46;7.80;;;4.27;;
16975;SDS011;8604;48.148;-1.786;2022-09-01T14:41:16;7.73;;;4.27;;
16975;SDS011;8604;48.148;-1.786;2022-09-01T14:43:49;9.35;;;4.35;;
16975;SDS011;8604;48.148;-1.786;2022-09-01T14:46:20;9.38;;;4.28;;
16975;SDS011;8604;48.148;-1.786;2022-09-01T14:48:49;7.35;;;4.00;;
16975;SDS011;8604;48.148;-1.786;2022-09-01T14:51:19;7.20;;;4.13;;
16975;SDS011;8604;48.148;-1.786;2022-09-01T14:53:50;7.43;;;4.88;;
16975;SDS011;8604;48.148;-1.786;2022-09-01T14:56:20;7.53;;;4.57;;
16975;SDS011;8604;48.148;-1.786;2022-09-01T14:58:50;6.13;;;4.20;;
16975;SDS011;8604;48.148;-1.786;2022-09-01T15:01:26;6.80;;;4.13;;
16975;SDS011;8604;48.148;-1.786;2022-09-01T15:04:02;8.45;;;4.50;;
16975;SDS011;8604;48.148;-1.786;2022-09-01T15:06:30;8.32;;;4.40;;
16975;SDS011;8604;48.148;-1.786;2022-09-01T15:08:59;8.53;;;4.43;;
16975;SDS011;8604;48.148;-1.786;2022-09-01T15:11:29;9.10;;;5.40;;
16975;SDS011;8604;48.148;-1.786;2022-09-01T15:14:01;9.63;;;5.07;;
16975;SDS011;8604;48.148;-1.786;2022-09-01T15:16:31;8.17;;;4.30;;
16975;SDS011;8604;48.148;-1.786;2022-09-01T15:19:05;8.07;;;4.33;;
16975;SDS011;8604;48.148;-1.786;2022-09-01T15:21:35;8.50;;;5.00;;
16975;SDS011;8604;48.148;-1.786;2022-09-01T15:24:04;8.67;;;5.10;;
16975;SDS011;8604;48.148;-1.786;2022-09-01T15:26:34;9.03;;;5.33;;
16975;SDS011;8604;48.148;-1.786;2022-09-01T15:29:03;9.57;;;5.30;;
16975;SDS011;8604;48.148;-1.786;2022-09-01T15:31:34;8.93;;;5.10;;
16975;SDS011;8604;48.148;-1.786;2022-09-01T15:34:03;10.53;;;5.27;;
16975;SDS011;8604;48.148;-1.786;2022-09-01T15:36:33;11.17;;;5.70;;
16975;SDS011;8604;48.148;-1.786;2022-09-01T15:39:06;11.47;;;5.43;;
16975;SDS011;8604;48.148;-1.786;2022-09-01T15:41:36;7.73;;;5.67;;
16975;SDS011;8604;48.148;-1.786;2022-09-01T15:44:06;8.63;;;4.73;;
16975;SDS011;8604;48.148;-1.786;2022-09-01T15:46:37;7.03;;;4.40;;
16975;SDS011;8604;48.148;-1.786;2022-09-01T15:49:07;7.67;;;4.70;;
16975;SDS011;8604;48.148;-1.786;2022-09-01T15:51:38;7.47;;;3.93;;
16975;SDS011;8604;48.148;-1.786;2022-09-01T15:54:09;6.10;;;4.00;;
16975;SDS011;8604;48.148;-1.786;2022-09-01T15:56:38;7.00;;;3.70;;
16975;SDS011;8604;48.148;-1.786;2022-09-01T15:59:09;6.53;;;3.73;;
16975;SDS011;8604;48.148;-1.786;2022-09-01T16:01:40;6.23;;;3.73;;
16975;SDS011;8604;48.148;-1.786;2022-09-01T16:04:10;7.57;;;4.17;;
16975;SDS011;8604;48.148;-1.786;2022-09-01T16:06:46;7.50;;;4.00;;
16975;SDS011;8604;48.148;-1.786;2022-09-01T16:09:17;6.70;;;4.17;;
16975;SDS011;8604;48.148;-1.786;2022-09-01T16:11:47;7.83;;;4.43;;
16975;SDS011;8604;48.148;-1.786;2022-09-01T16:14:16;7.30;;;4.83;;
16975;SDS011;8604;48.148;-1.786;2022-09-01T16:16:50;7.73;;;5.33;;
16975;SDS011;8604;48.148;-1.786;2022-09-01T16:19:31;9.30;;;5.40;;
16975;SDS011;8604;48.148;-1.786;2022-09-01T16:22:09;8.27;;;5.00;;
16975;SDS011;8604;48.148;-1.786;2022-09-01T16:24:43;6.80;;;4.50;;
16975;SDS011;8604;48.148;-1.786;2022-09-01T16:27:17;8.83;;;4.90;;
16975;SDS011;8604;48.148;-1.786;2022-09-01T16:29:49;7.07;;;4.60;;
16975;SDS011;8604;48.148;-1.786;2022-09-01T16:32:21;6.20;;;4.63;;
16975;SDS011;8604;48.148;-1.786;2022-09-01T16:34:51;14.83;;;4.47;;
16975;SDS011;8604;48.148;-1.786;2022-09-01T16:37:37;7.80;;;4.37;;
16975;SDS011;8604;48.148;-1.786;2022-09-01T16:40:15;7.83;;;4.07;;
16975;SDS011;8604;48.148;-1.786;2022-09-01T16:43:02;10.23;;;4.67;;
16975;SDS011;8604;48.148;-1.786;2022-09-01T16:45:40;7.80;;;4.80;;
16975;SDS011;8604;48.148;-1.786;2022-09-01T16:48:20;8.03;;;4.37;;
16975;SDS011;8604;48.148;-1.786;2022-09-01T16:50:53;6.30;;;4.20;;
16975;SDS011;8604;48.148;-1.786;2022-09-01T16:53:31;9.70;;;4.40;;
16975;SDS011;8604;48.148;-1.786;2022-09-01T16:56:12;7.77;;;4.20;;
16975;SDS011;8604;48.148;-1.786;2022-09-01T16:58:51;8.60;;;4.80;;
16975;SDS011;8604;48.148;-1.786;2022-09-01T17:01:32;6.50;;;4.37;;
16975;SDS011;8604;48.148;-1.786;2022-09-01T17:04:30;6.90;;;4.27;;
16975;SDS011;8604;48.148;-1.786;2022-09-01T17:07:07;8.17;;;5.07;;
16975;SDS011;8604;48.148;-1.786;2022-09-01T17:09:41;9.03;;;4.43;;
16975;SDS011;8604;48.148;-1.786;2022-09-01T17:12:18;9.57;;;4.60;;
16975;SDS011;8604;48.148;-1.786;2022-09-01T17:14:53;7.10;;;4.70;;
16975;SDS011;8604;48.148;-1.786;2022-09-01T17:17:32;7.20;;;4.20;;
16975;SDS011;8604;48.148;-1.786;2022-09-01T17:20:07;6.40;;;4.20;;
16975;SDS011;8604;48.148;-1.786;2022-09-01T17:22:36;7.57;;;4.60;;
16975;SDS011;8604;48.148;-1.786;2022-09-01T17:25:06;9.57;;;4.37;;
16975;SDS011;8604;48.148;-1.786;2022-09-01T17:27:43;7.97;;;4.73;;
16975;SDS011;8604;48.148;-1.786;2022-09-01T17:30:18;7.97;;;4.40;;
16975;SDS011;8604;48.148;-1.786;2022-09-01T17:35:54;6.83;;;4.40;;
16975;SDS011;8604;48.148;-1.786;2022-09-01T17:38:33;7.40;;;4.30;;
16975;SDS011;8604;48.148;-1.786;2022-09-01T17:41:15;7.47;;;4.27;;
16975;SDS011;8604;48.148;-1.786;2022-09-01T17:43:52;7.47;;;3.70;;
16975;SDS011;8604;48.148;-1.786;2022-09-01T17:46:28;7.37;;;3.70;;
16975;SDS011;8604;48.148;-1.786;2022-09-01T17:49:33;6.40;;;3.90;;
16975;SDS011;8604;48.148;-1.786;2022-09-01T17:52:32;8.83;;;3.73;;
16975;SDS011;8604;48.148;-1.786;2022-09-01T17:55:33;9.07;;;3.87;;
16975;SDS011;8604;48.148;-1.786;2022-09-01T17:58:11;10.80;;;4.07;;
16975;SDS011;8604;48.148;-1.786;2022-09-01T18:00:49;5.80;;;3.80;;
16975;SDS011;8604;48.148;-1.786;2022-09-01T18:03:38;7.77;;;3.87;;
16975;SDS011;8604;48.148;-1.786;2022-09-01T18:06:19;6.47;;;3.50;;
16975;SDS011;8604;48.148;-1.786;2022-09-01T18:08:56;6.17;;;3.97;;
16975;SDS011;8604;48.148;-1.786;2022-09-01T18:11:26;6.63;;;4.00;;
16975;SDS011;8604;48.148;-1.786;2022-09-01T18:14:04;6.67;;;3.67;;
16975;SDS011;8604;48.148;-1.786;2022-09-01T18:16:54;7.27;;;3.67;;
16975;SDS011;8604;48.148;-1.786;2022-09-01T18:19:32;5.53;;;3.83;;
16975;SDS011;8604;48.148;-1.786;2022-09-01T18:27:08;6.10;;;3.50;;
16975;SDS011;8604;48.148;-1.786;2022-09-01T18:29:55;7.20;;;3.67;;
16975;SDS011;8604;48.148;-1.786;2022-09-01T18:35:33;6.37;;;3.40;;
16975;SDS011;8604;48.148;-1.786;2022-09-01T18:38:12;9.47;;;4.20;;
16975;SDS011;8604;48.148;-1.786;2022-09-01T18:43:43;6.93;;;4.10;;
16975;SDS011;8604;48.148;-1.786;2022-09-01T18:46:15;6.83;;;4.50;;
16975;SDS011;8604;48.148;-1.786;2022-09-01T18:48:53;8.37;;;4.30;;
16975;SDS011;8604;48.148;-1.786;2022-09-01T18:51:35;7.87;;;4.60;;
16975;SDS011;8604;48.148;-1.786;2022-09-01T18:54:16;7.00;;;4.10;;
16975;SDS011;8604;48.148;-1.786;2022-09-01T18:56:48;7.27;;;3.93;;
16975;SDS011;8604;48.148;-1.786;2022-09-01T18:59:32;7.00;;;3.57;;
16975;SDS011;8604;48.148;-1.786;2022-09-01T19:02:18;7.80;;;3.77;;
16975;SDS011;8604;48.148;-1.786;2022-09-01T19:05:02;7.50;;;3.50;;
16975;SDS011;8604;48.148;-1.786;2022-09-01T19:07:41;6.13;;;3.30;;
16975;SDS011;8604;48.148;-1.786;2022-09-01T19:10:20;5.97;;;3.60;;
16975;SDS011;8604;48.148;-1.786;2022-09-01T19:12:58;5.57;;;3.50;;
16975;SDS011;8604;48.148;-1.786;2022-09-01T19:15:36;6.50;;;3.03;;
16975;SDS011;8604;48.148;-1.786;2022-09-01T19:18:11;6.10;;;3.13;;
16975;SDS011;8604;48.148;-1.786;2022-09-01T19:20:46;6.37;;;3.23;;
16975;SDS011;8604;48.148;-1.786;2022-09-01T19:23:20;6.53;;;3.33;;
16975;SDS011;8604;48.148;-1.786;2022-09-01T19:26:03;5.07;;;3.10;;
16975;SDS011;8604;48.148;-1.786;2022-09-01T19:28:37;5.70;;;2.97;;
16975;SDS011;8604;48.148;-1.786;2022-09-01T19:31:14;5.50;;;2.90;;
16975;SDS011;8604;48.148;-1.786;2022-09-01T19:33:49;6.63;;;2.83;;
16975;SDS011;8604;48.148;-1.786;2022-09-01T19:36:21;5.03;;;3.03;;
16975;SDS011;8604;48.148;-1.786;2022-09-01T19:38:56;4.23;;;2.87;;
16975;SDS011;8604;48.148;-1.786;2022-09-01T19:41:27;7.67;;;3.20;;
16975;SDS011;8604;48.148;-1.786;2022-09-01T19:44:02;6.83;;;3.43;;
16975;SDS011;8604;48.148;-1.786;2022-09-01T19:46:42;6.57;;;3.60;;
16975;SDS011;8604;48.148;-1.786;2022-09-01T19:49:18;6.37;;;3.70;;
16975;SDS011;8604;48.148;-1.786;2022-09-01T19:51:55;6.47;;;3.77;;
16975;SDS011;8604;48.148;-1.786;2022-09-01T19:54:34;5.30;;;3.70;;
16975;SDS011;8604;48.148;-1.786;2022-09-01T19:57:09;5.83;;;3.70;;
16975;SDS011;8604;48.148;-1.786;2022-09-01T19:59:49;8.57;;;3.77;;
16975;SDS011;8604;48.148;-1.786;2022-09-01T20:02:27;8.40;;;3.73;;
16975;SDS011;8604;48.148;-1.786;2022-09-01T20:09:33;6.70;;;3.70;;
16975;SDS011;8604;48.148;-1.786;2022-09-01T20:21:11;9.13;;;4.00;;
16975;SDS011;8604;48.148;-1.786;2022-09-01T20:27:57;6.27;;;3.77;;
16975;SDS011;8604;48.148;-1.786;2022-09-01T20:30:33;6.97;;;4.00;;
16975;SDS011;8604;48.148;-1.786;2022-09-01T20:33:07;7.20;;;3.60;;
16975;SDS011;8604;48.148;-1.786;2022-09-01T20:35:42;6.87;;;3.90;;
16975;SDS011;8604;48.148;-1.786;2022-09-01T20:38:17;6.27;;;3.90;;
16975;SDS011;8604;48.148;-1.786;2022-09-01T20:41:10;7.57;;;3.83;;
16975;SDS011;8604;48.148;-1.786;2022-09-01T20:43:45;6.83;;;3.60;;
16975;SDS011;8604;48.148;-1.786;2022-09-01T20:46:18;6.60;;;3.93;;